createdAt,value
2019-03-20T00:00:43.850Z,101634.25
2019-03-20T00:03:13.613Z,101638.55
2019-03-20T00:05:43.289Z,101640.72
2019-03-20T00:08:13.119Z,101646.53
2019-03-20T00:10:43.048Z,101643.05
2019-03-20T00:13:12.720Z,101642.06
2019-03-20T00:15:42.337Z,101644.75
2019-03-20T00:18:12.469Z,101647.58
2019-03-20T00:20:42.275Z,101650.34
2019-03-20T00:23:12.102Z,101653.55
2019-03-20T00:25:42.741Z,101649.66
2019-03-20T00:28:12.523Z,101647.45
2019-03-20T00:30:42.241Z,101646.27
2019-03-20T00:33:12.112Z,101645.91
2019-03-20T00:35:42.094Z,101644.47
2019-03-20T00:38:11.960Z,101648.86
2019-03-20T00:40:41.830Z,101646.36
2019-03-20T00:43:11.847Z,101653.02
2019-03-20T00:45:41.656Z,101649.99
2019-03-20T00:48:11.558Z,101651.60
2019-03-20T00:50:41.364Z,101645.17
2019-03-20T00:53:12.106Z,101644.87
2019-03-20T00:55:41.967Z,101652.14
2019-03-20T00:58:11.894Z,101647.41
2019-03-20T01:00:41.761Z,101649.41
2019-03-20T01:03:11.680Z,101646.75
2019-03-20T01:05:41.736Z,101645.40
2019-03-20T01:08:11.413Z,101646.45
2019-03-20T01:10:41.324Z,101640.13
2019-03-20T01:13:11.192Z,101645.52
2019-03-20T01:15:40.952Z,101641.77
2019-03-20T01:18:10.670Z,101637.98
2019-03-20T01:20:40.512Z,101638.83
2019-03-20T01:23:10.517Z,101643.17
2019-03-20T01:25:40.356Z,101649.52
2019-03-20T01:28:10.230Z,101643.20
2019-03-20T01:30:40.155Z,101646.48
2019-03-20T01:33:11.137Z,101650.16
2019-03-20T01:35:41.625Z,101641.35
2019-03-20T01:38:11.525Z,101647.96
2019-03-20T01:40:41.496Z,101646.00
2019-03-20T01:43:11.262Z,101648.03
2019-03-20T01:45:41.174Z,101652.56
2019-03-20T01:48:10.936Z,101642.20
2019-03-20T01:50:40.727Z,101647.25
2019-03-20T01:53:10.936Z,101645.16
2019-03-20T01:55:41.747Z,101647.84
2019-03-20T01:58:11.485Z,101654.98
2019-03-20T02:00:41.831Z,101650.05
2019-03-20T02:03:11.737Z,101661.58
2019-03-20T02:05:41.649Z,101663.55
2019-03-20T02:08:11.594Z,101669.27
2019-03-20T02:10:41.501Z,101667.11
2019-03-20T02:13:11.287Z,101669.05
2019-03-20T02:15:41.046Z,101667.95
2019-03-20T02:18:10.935Z,101665.81
2019-03-20T02:20:40.811Z,101665.22
2019-03-20T02:23:10.667Z,101668.38
2019-03-20T02:25:41.567Z,101670.83
2019-03-20T02:28:11.244Z,101674.13
2019-03-20T02:30:41.042Z,101678.61
2019-03-20T02:33:10.956Z,101676.08
2019-03-20T02:35:51.489Z,101681.16
2019-03-20T02:38:12.524Z,101681.41
2019-03-20T02:40:42.326Z,101682.05
2019-03-20T02:43:12.284Z,101677.20
2019-03-20T02:45:42.054Z,101688.71
2019-03-20T02:48:11.966Z,101685.48
2019-03-20T02:50:41.831Z,101683.17
2019-03-20T02:53:11.715Z,101688.39
2019-03-20T02:55:41.542Z,101688.40
2019-03-20T02:58:11.220Z,101690.67
2019-03-20T03:00:40.948Z,101695.03
2019-03-20T03:03:10.814Z,101703.92
2019-03-20T03:05:40.574Z,101703.47
2019-03-20T03:08:10.397Z,101702.34
2019-03-20T03:10:40.415Z,101701.78
2019-03-20T03:13:10.125Z,101708.24
2019-03-20T03:15:39.953Z,101708.80
2019-03-20T03:18:10.330Z,101710.58
2019-03-20T03:20:40.293Z,101708.48
2019-03-20T03:23:10.415Z,101709.62
2019-03-20T03:25:41.405Z,101715.17
2019-03-20T03:28:11.173Z,101710.31
2019-03-20T03:30:41.196Z,101717.83
2019-03-20T03:33:11.042Z,101715.73
2019-03-20T03:35:40.904Z,101723.44
2019-03-20T03:38:10.810Z,101724.73
2019-03-20T03:40:41.188Z,101720.77
2019-03-20T03:43:10.882Z,101727.75
2019-03-20T03:45:40.896Z,101729.63
2019-03-20T03:48:10.728Z,101731.20
2019-03-20T03:50:40.602Z,101726.18
2019-03-20T03:53:10.333Z,101737.44
2019-03-20T03:55:40.416Z,101738.80
2019-03-20T03:58:10.543Z,101744.91
2019-03-20T04:00:40.572Z,101739.53
2019-03-20T04:03:10.404Z,101749.79
2019-03-20T04:05:40.152Z,101753.01
2019-03-20T04:08:09.927Z,101757.19
2019-03-20T04:10:39.759Z,101764.42
2019-03-20T04:13:10.767Z,101767.23
2019-03-20T04:15:40.667Z,101778.34
2019-03-20T04:18:11.743Z,101776.06
2019-03-20T04:20:41.676Z,101772.51
2019-03-20T04:23:11.463Z,101782.70
2019-03-20T04:25:41.234Z,101784.09
2019-03-20T04:28:11.202Z,101795.20
2019-03-20T04:30:41.234Z,101798.23
2019-03-20T04:33:11.105Z,101796.58
2019-03-20T04:35:40.845Z,101798.23
2019-03-20T04:38:10.450Z,101803.17
2019-03-20T04:40:40.417Z,101794.06
2019-03-20T04:43:10.281Z,101810.38
2019-03-20T04:45:39.889Z,101803.30
2019-03-20T04:48:09.775Z,101802.41
2019-03-20T04:50:39.533Z,101809.60
2019-03-20T04:53:09.362Z,101811.02
2019-03-20T04:55:39.349Z,101821.53
2019-03-20T04:58:09.067Z,101819.45
2019-03-20T05:00:38.908Z,101821.96
2019-03-20T05:03:08.857Z,101829.97
2019-03-20T05:05:39.635Z,101829.28
2019-03-20T05:08:09.496Z,101829.67
2019-03-20T05:10:39.313Z,101836.00
2019-03-20T05:13:09.394Z,101845.27
2019-03-20T05:15:39.279Z,101850.11
2019-03-20T05:18:08.923Z,101841.86
2019-03-20T05:20:39.082Z,101848.87
2019-03-20T05:23:08.988Z,101855.80
2019-03-20T05:25:38.872Z,101855.89
2019-03-20T05:28:10.256Z,101856.94
2019-03-20T05:30:40.202Z,101864.84
2019-03-20T05:33:10.050Z,101869.17
2019-03-20T05:35:39.663Z,101869.67
2019-03-20T05:38:09.657Z,101879.64
2019-03-20T05:40:39.633Z,101884.84
2019-03-20T05:43:09.541Z,101887.92
2019-03-20T05:45:39.484Z,101893.65
2019-03-20T05:48:09.429Z,101891.69
2019-03-20T05:50:39.335Z,101902.87
2019-03-20T05:53:09.191Z,101901.70
2019-03-20T05:55:38.999Z,101914.36
2019-03-20T05:58:08.775Z,101918.08
2019-03-20T06:00:38.527Z,101917.89
2019-03-20T06:03:08.629Z,101923.94
2019-03-20T06:05:38.408Z,101925.33
2019-03-20T06:08:09.221Z,101924.56
2019-03-20T06:10:38.921Z,101923.69
2019-03-20T06:13:08.790Z,101930.81
2019-03-20T06:15:38.544Z,101927.00
2019-03-20T06:18:08.379Z,101930.18
2019-03-20T06:20:38.345Z,101935.64
2019-03-20T06:23:08.085Z,101934.47
2019-03-20T06:25:37.916Z,101935.45
2019-03-20T06:28:07.657Z,101941.89
2019-03-20T06:30:37.435Z,101944.98
2019-03-20T06:33:07.310Z,101950.20
2019-03-20T06:35:37.221Z,101949.67
2019-03-20T06:38:07.080Z,101960.30
2019-03-20T06:40:36.792Z,101955.50
2019-03-20T06:43:06.650Z,101961.56
2019-03-20T06:45:36.538Z,101963.95
2019-03-20T06:48:06.505Z,101963.30
2019-03-20T06:50:36.273Z,101970.84
2019-03-20T06:53:06.191Z,101980.95
2019-03-20T06:55:36.143Z,101979.09
2019-03-20T06:58:05.799Z,101985.38
2019-03-20T07:01:03.893Z,101985.53
2019-03-20T07:03:40.364Z,101984.16
2019-03-20T07:06:20.567Z,101991.88
2019-03-20T07:09:00.614Z,102001.88
2019-03-20T07:11:28.395Z,101993.42
2019-03-20T07:13:58.184Z,102008.80
2019-03-20T07:16:27.953Z,102005.03
2019-03-20T07:18:57.773Z,102005.88
2019-03-20T07:21:28.690Z,102010.39
2019-03-20T07:23:58.591Z,102012.22
2019-03-20T07:26:28.768Z,102020.00
2019-03-20T07:28:58.615Z,102021.89
2019-03-20T07:31:28.370Z,102025.39
2019-03-20T07:33:58.184Z,102027.08
2019-03-20T07:36:27.922Z,102023.13
2019-03-20T07:38:57.627Z,102024.44
2019-03-20T07:41:28.663Z,102029.68
2019-03-20T07:43:58.464Z,102030.32
2019-03-20T07:46:28.303Z,102034.27
2019-03-20T07:48:58.270Z,102037.08
2019-03-20T07:51:28.113Z,102037.08
2019-03-20T07:53:57.829Z,102036.36
2019-03-20T07:56:27.607Z,102036.39
2019-03-20T07:58:57.351Z,102041.24
2019-03-20T08:01:27.186Z,102042.38
2019-03-20T08:03:57.080Z,102049.00
2019-03-20T08:06:28.132Z,102050.75
2019-03-20T08:08:58.009Z,102052.13
2019-03-20T08:11:27.888Z,102053.21
2019-03-20T08:13:57.794Z,102056.65
2019-03-20T08:16:27.743Z,102057.27
2019-03-20T08:18:57.620Z,102056.87
2019-03-20T08:21:28.770Z,102062.11
2019-03-20T08:23:58.567Z,102058.27
2019-03-20T08:26:28.394Z,102065.03
2019-03-20T08:28:58.342Z,102066.77
2019-03-20T08:31:28.226Z,102065.77
2019-03-20T08:33:58.135Z,102066.77
2019-03-20T08:36:28.112Z,102069.38
2019-03-20T08:38:57.971Z,102071.51
2019-03-20T08:41:27.888Z,102070.67
2019-03-20T08:43:57.852Z,102068.48
2019-03-20T08:46:27.721Z,102074.39
2019-03-20T08:48:57.530Z,102075.86
2019-03-20T08:51:28.523Z,102078.59
2019-03-20T08:53:58.394Z,102086.34
2019-03-20T08:56:28.108Z,102091.72
2019-03-20T08:58:59.161Z,102084.19
2019-03-20T09:01:29.222Z,102085.04
2019-03-20T09:03:58.973Z,102079.61
2019-03-20T09:06:28.646Z,102084.77
2019-03-20T09:08:59.673Z,102082.97
2019-03-20T09:11:29.551Z,102090.45
2019-03-20T09:13:59.503Z,102093.12
2019-03-20T09:16:29.280Z,102091.56
2019-03-20T09:18:58.995Z,102090.70
2019-03-20T09:21:28.755Z,102092.86
2019-03-20T09:23:58.516Z,102087.92
2019-03-20T09:26:29.465Z,102099.78
2019-03-20T09:28:59.322Z,102091.83
2019-03-20T09:31:28.991Z,102099.78
2019-03-20T09:33:58.918Z,102095.40
2019-03-20T09:36:29.699Z,102100.44
2019-03-20T09:38:59.470Z,102093.09
2019-03-20T09:41:29.372Z,102098.75
2019-03-20T09:43:59.240Z,102105.34
2019-03-20T09:46:28.891Z,102107.43
2019-03-20T09:48:58.809Z,102112.38
2019-03-20T09:51:28.636Z,102112.56
2019-03-20T09:53:58.692Z,102112.67
2019-03-20T09:56:28.559Z,102113.91
2019-03-20T09:58:58.267Z,102111.55
2019-03-20T10:01:28.026Z,102125.05
2019-03-20T10:03:57.818Z,102123.48
2019-03-20T10:06:27.620Z,102126.92
2019-03-20T10:08:59.140Z,102132.20
2019-03-20T10:11:30.268Z,102134.95
2019-03-20T10:14:00.064Z,102139.26
2019-03-20T10:16:31.142Z,102131.47
2019-03-20T10:19:00.820Z,102128.75
2019-03-20T10:21:30.642Z,102133.78
2019-03-20T10:24:00.415Z,102131.92
2019-03-20T10:26:30.231Z,102144.49
2019-03-20T10:28:59.983Z,102146.71
2019-03-20T10:31:29.755Z,102141.86
2019-03-20T10:33:59.902Z,102147.61
2019-03-20T10:36:29.936Z,102136.42
2019-03-20T10:39:06.331Z,102147.98
2019-03-20T10:41:31.284Z,102147.41
2019-03-20T10:44:01.450Z,102140.84
2019-03-20T10:46:31.201Z,102144.45
2019-03-20T10:49:01.035Z,102146.64
2019-03-20T10:51:31.172Z,102142.23
2019-03-20T10:54:01.194Z,102146.52
2019-03-20T10:56:30.971Z,102142.02
2019-03-20T10:59:00.995Z,102138.36
2019-03-20T11:01:41.867Z,102131.34
2019-03-20T11:04:02.375Z,102136.53
2019-03-20T11:06:32.276Z,102135.56
2019-03-20T11:09:02.138Z,102138.09
2019-03-20T11:11:31.713Z,102137.59
2019-03-20T11:14:01.609Z,102137.27
2019-03-20T11:16:31.689Z,102136.69
2019-03-20T11:19:02.709Z,102138.47
2019-03-20T11:21:32.495Z,102146.45
2019-03-20T11:24:02.301Z,102139.47
2019-03-20T11:26:32.186Z,102136.87
2019-03-20T11:29:01.837Z,102137.70
2019-03-20T11:31:31.547Z,102134.13
2019-03-20T11:34:02.623Z,102126.97
2019-03-20T11:36:32.423Z,102129.80
2019-03-20T11:39:02.110Z,102125.83
2019-03-20T11:41:33.089Z,102129.88
2019-03-20T11:44:02.990Z,102128.91
2019-03-20T11:46:32.906Z,102133.43
2019-03-20T11:49:02.746Z,102130.52
2019-03-20T11:51:32.609Z,102127.84
2019-03-20T11:54:02.426Z,102119.16
2019-03-20T11:56:32.192Z,102126.70
2019-03-20T11:59:01.975Z,102122.22
2019-03-20T12:01:31.943Z,102119.28
2019-03-20T12:04:01.817Z,102111.48
2019-03-20T12:06:31.736Z,102110.82
2019-03-20T12:09:01.726Z,102104.16
2019-03-20T12:11:31.562Z,102105.25
2019-03-20T12:14:01.478Z,102101.70
2019-03-20T12:16:31.439Z,102100.95
2019-03-20T12:19:01.293Z,102101.22
2019-03-20T12:21:31.104Z,102092.48
2019-03-20T12:24:00.960Z,102092.98
2019-03-20T12:26:30.730Z,102095.08
2019-03-20T12:29:00.442Z,102088.95
2019-03-20T12:31:31.624Z,102092.11
2019-03-20T12:34:02.356Z,102087.57
2019-03-20T12:36:32.146Z,102094.09
2019-03-20T12:39:02.106Z,102092.25
2019-03-20T12:41:31.973Z,102091.69
2019-03-20T12:44:01.995Z,102088.50
2019-03-20T12:46:41.466Z,102097.28
2019-03-20T12:49:03.257Z,102102.24
2019-03-20T12:51:32.975Z,102104.75
2019-03-20T12:54:02.965Z,102109.41
2019-03-20T12:56:32.759Z,102118.67
2019-03-20T12:59:02.853Z,102126.14
2019-03-20T13:01:32.868Z,102123.18
2019-03-20T13:04:02.720Z,102125.98
2019-03-20T13:06:32.575Z,102129.91
2019-03-20T13:09:04.485Z,102133.11
2019-03-20T13:11:34.201Z,102132.47
2019-03-20T13:14:04.087Z,102137.38
2019-03-20T13:16:33.879Z,102143.36
2019-03-20T13:19:03.733Z,102138.27
2019-03-20T13:21:33.404Z,102143.14
2019-03-20T13:24:03.249Z,102139.86
2019-03-20T13:26:33.219Z,102142.39
2019-03-20T13:29:03.176Z,102148.37
2019-03-20T13:31:33.097Z,102146.34
2019-03-20T13:34:03.063Z,102149.34
2019-03-20T13:36:32.816Z,102144.77
2019-03-20T13:39:03.427Z,102142.36
2019-03-20T13:41:33.195Z,102141.84
2019-03-20T13:44:02.866Z,102135.73
2019-03-20T13:46:32.777Z,102148.44
2019-03-20T13:49:02.568Z,102146.20
2019-03-20T13:51:32.407Z,102149.77
2019-03-20T13:54:02.226Z,102146.39
2019-03-20T13:56:32.179Z,102137.96
2019-03-20T13:59:01.848Z,102136.91
2019-03-20T14:01:31.458Z,102141.92
2019-03-20T14:04:01.350Z,102133.61
2019-03-20T14:06:31.220Z,102133.38
2019-03-20T14:09:01.140Z,102132.30
2019-03-20T14:11:31.093Z,102131.92
2019-03-20T14:14:00.836Z,102141.80
2019-03-20T14:16:30.558Z,102141.46
2019-03-20T14:19:00.548Z,102143.81
2019-03-20T14:21:30.614Z,102146.22
2019-03-20T14:24:00.401Z,102155.22
2019-03-20T14:26:30.061Z,102158.04
2019-03-20T14:28:59.829Z,102160.08
2019-03-20T14:31:29.773Z,102166.25
2019-03-20T14:33:59.703Z,102159.72
2019-03-20T14:36:29.601Z,102157.98
2019-03-20T14:39:00.771Z,102155.91
2019-03-20T14:41:30.640Z,102147.95
2019-03-20T14:44:00.468Z,102150.69
2019-03-20T14:46:30.223Z,102147.53
2019-03-20T14:49:00.082Z,102157.92
2019-03-20T14:51:29.936Z,102159.55
2019-03-20T14:53:59.839Z,102164.11
2019-03-20T14:56:29.753Z,102169.09
2019-03-20T14:58:59.801Z,102168.84
2019-03-20T15:01:29.561Z,102167.89
2019-03-20T15:03:59.324Z,102171.88
2019-03-20T15:06:29.094Z,102176.48
2019-03-20T15:08:58.882Z,102177.73
2019-03-20T15:11:28.744Z,102180.48
2019-03-20T15:13:58.555Z,102181.48
2019-03-20T15:16:28.484Z,102182.59
2019-03-20T15:18:58.432Z,102182.36
2019-03-20T15:21:28.282Z,102187.66
2019-03-20T15:23:57.894Z,102190.16
2019-03-20T15:26:27.743Z,102190.05
2019-03-20T15:28:57.620Z,102192.59
2019-03-20T15:31:27.441Z,102198.27
2019-03-20T15:33:57.207Z,102206.69
2019-03-20T15:36:26.920Z,102216.57
2019-03-20T15:38:56.702Z,102220.33
2019-03-20T15:41:26.619Z,102225.55
2019-03-20T15:44:02.388Z,102230.88
2019-03-20T15:46:28.194Z,102232.20
2019-03-20T15:48:58.005Z,102234.72
2019-03-20T15:51:27.746Z,102233.02
2019-03-20T15:53:57.621Z,102234.00
2019-03-20T15:56:27.538Z,102230.88
2019-03-20T15:58:57.352Z,102234.72
2019-03-20T16:01:27.228Z,102239.27
2019-03-20T16:03:57.081Z,102245.69
2019-03-20T16:06:26.953Z,102245.08
2019-03-20T16:08:57.006Z,102251.88
2019-03-20T16:11:26.733Z,102255.12
2019-03-20T16:13:56.585Z,102257.16
2019-03-20T16:16:26.350Z,102257.20
2019-03-20T16:18:56.176Z,102262.68
2019-03-20T16:21:27.331Z,102268.30
2019-03-20T16:23:57.254Z,102270.97
2019-03-20T16:26:27.143Z,102276.31
2019-03-20T16:28:56.810Z,102278.09
2019-03-20T16:31:26.696Z,102281.10
2019-03-20T16:33:56.585Z,102272.62
2019-03-20T16:36:26.315Z,102283.03
2019-03-20T16:38:56.122Z,102281.33
2019-03-20T16:41:27.180Z,102283.33
2019-03-20T16:43:57.028Z,102283.69
2019-03-20T16:46:26.796Z,102286.75
2019-03-20T16:48:56.756Z,102283.38
2019-03-20T16:51:26.515Z,102287.27
2019-03-20T16:53:56.240Z,102284.37
2019-03-20T16:56:26.388Z,102284.21
2019-03-20T16:58:56.264Z,102283.84
2019-03-20T17:01:26.307Z,102281.21
2019-03-20T17:03:56.196Z,102286.64
2019-03-20T17:06:25.961Z,102288.41
2019-03-20T17:08:55.798Z,102294.72
2019-03-20T17:11:34.485Z,102296.12
2019-03-20T17:13:56.997Z,102292.30
2019-03-20T17:16:26.776Z,102298.95
2019-03-20T17:18:56.521Z,102302.22
2019-03-20T17:21:26.366Z,102300.24
2019-03-20T17:23:56.648Z,102307.95
2019-03-20T17:26:26.500Z,102316.30
2019-03-20T17:28:56.289Z,102316.41
2019-03-20T17:31:27.180Z,102322.67
2019-03-20T17:33:56.955Z,102328.39
2019-03-20T17:36:26.769Z,102328.83
2019-03-20T17:38:56.639Z,102326.05
2019-03-20T17:41:36.287Z,102333.52
2019-03-20T17:43:58.992Z,102335.41
2019-03-20T17:46:28.882Z,102341.95
2019-03-20T17:48:58.598Z,102341.20
2019-03-20T17:51:28.873Z,102347.73
2019-03-20T17:53:58.635Z,102355.56
2019-03-20T17:56:28.536Z,102355.15
2019-03-20T17:58:58.159Z,102358.45
2019-03-20T18:01:28.216Z,102363.33
2019-03-20T18:03:58.160Z,102365.98
2019-03-20T18:06:28.219Z,102372.89
2019-03-20T18:08:58.046Z,102381.75
2019-03-20T18:11:28.040Z,102387.69
2019-03-20T18:13:57.893Z,102394.10
2019-03-20T18:16:27.872Z,102393.66
2019-03-20T18:18:57.650Z,102379.30
2019-03-20T18:21:27.505Z,102382.83
2019-03-20T18:23:57.461Z,102391.94
2019-03-20T18:26:27.192Z,102393.96
2019-03-20T18:28:56.956Z,102396.05
2019-03-20T18:31:26.845Z,102406.47
2019-03-20T18:33:56.725Z,102403.47
2019-03-20T18:36:26.635Z,102408.02
2019-03-20T18:38:56.473Z,102413.39
2019-03-20T18:41:26.258Z,102411.53
2019-03-20T18:43:56.178Z,102417.90
2019-03-20T18:46:26.128Z,102418.86
2019-03-20T18:48:56.110Z,102418.52
2019-03-20T18:51:26.014Z,102422.00
2019-03-20T18:53:56.035Z,102416.83
2019-03-20T18:56:25.865Z,102420.87
2019-03-20T18:58:55.582Z,102414.36
2019-03-20T19:01:26.852Z,102419.58
2019-03-20T19:03:56.618Z,102413.06
2019-03-20T19:06:27.758Z,102422.58
2019-03-20T19:08:57.479Z,102420.51
2019-03-20T19:11:27.450Z,102415.75
2019-03-20T19:13:57.312Z,102429.12
2019-03-20T19:16:28.609Z,102428.78
2019-03-20T19:19:18.477Z,102431.28
2019-03-20T19:21:48.515Z,102432.45
2019-03-20T19:24:18.715Z,102433.02
2019-03-20T19:26:50.774Z,102438.44
2019-03-20T19:29:44.866Z,102440.15
2019-03-20T19:32:14.932Z,102448.28
2019-03-20T19:34:45.333Z,102456.12
2019-03-20T19:37:15.107Z,102456.30
2019-03-20T19:39:45.029Z,102459.58
2019-03-20T19:42:19.922Z,102460.41
2019-03-20T19:44:46.621Z,102463.53
2019-03-20T19:47:16.632Z,102457.56
2019-03-20T19:49:47.617Z,102456.11
2019-03-20T19:52:17.406Z,102467.14
2019-03-20T19:54:47.179Z,102462.95
2019-03-20T19:57:18.457Z,102464.72
2019-03-20T19:59:48.163Z,102468.76
2019-03-20T20:02:18.176Z,102472.30
2019-03-20T20:04:48.255Z,102480.58
2019-03-20T20:07:18.329Z,102483.08
2019-03-20T20:09:48.314Z,102485.30
2019-03-20T20:12:19.209Z,102484.00
2019-03-20T20:14:49.134Z,102485.48
2019-03-20T20:17:18.898Z,102484.09
2019-03-20T20:19:49.979Z,102486.88
2019-03-20T20:22:19.977Z,102488.92
2019-03-20T20:24:49.891Z,102487.87
2019-03-20T20:27:19.842Z,102488.61
2019-03-20T20:29:49.712Z,102486.61
2019-03-20T20:32:19.542Z,102479.12
2019-03-20T20:34:49.319Z,102489.34
2019-03-20T20:37:19.395Z,102487.62
2019-03-20T20:39:49.359Z,102490.05
2019-03-20T20:42:20.358Z,102484.02
2019-03-20T20:44:50.226Z,102478.44
2019-03-20T20:47:19.948Z,102484.36
2019-03-20T20:49:49.963Z,102481.51
2019-03-20T20:52:21.108Z,102480.41
2019-03-20T20:54:51.167Z,102485.00
2019-03-20T20:57:22.392Z,102487.25
2019-03-20T20:59:53.510Z,102486.55
2019-03-20T21:02:23.341Z,102491.77
2019-03-20T21:04:53.228Z,102488.75
2019-03-20T21:07:23.256Z,102485.91
2019-03-20T21:09:53.012Z,102492.84
2019-03-20T21:12:22.806Z,102492.72
2019-03-20T21:14:52.778Z,102491.22
2019-03-20T21:17:30.043Z,102494.79
2019-03-20T21:20:00.502Z,102492.55
2019-03-20T21:23:29.139Z,102500.58
2019-03-20T21:26:00.568Z,102499.39
2019-03-20T21:29:15.798Z,102498.06
2019-03-20T21:32:03.674Z,102501.09
2019-03-20T21:35:17.050Z,102505.27
2019-03-20T21:38:08.468Z,102504.91
2019-03-20T21:41:27.670Z,102505.00
2019-03-20T21:44:44.112Z,102512.38
2019-03-20T21:47:34.321Z,102510.86
2019-03-20T21:50:46.548Z,102510.05
2019-03-20T21:53:20.456Z,102513.15
2019-03-20T21:56:27.301Z,102508.41
2019-03-20T21:59:10.632Z,102514.63
2019-03-20T22:02:00.928Z,102512.91
2019-03-20T22:04:32.400Z,102514.84
2019-03-20T22:07:06.545Z,102518.20
2019-03-20T22:10:16.655Z,102515.80
2019-03-20T22:13:03.062Z,102511.70
2019-03-20T22:16:04.993Z,102516.25
2019-03-20T22:19:09.904Z,102513.38
2019-03-20T22:22:17.260Z,102512.58
2019-03-20T22:25:26.129Z,102505.23
2019-03-20T22:28:20.009Z,102507.81
2019-03-20T22:30:50.312Z,102513.86
2019-03-20T22:33:55.690Z,102517.98
2019-03-20T22:36:30.244Z,102513.91
2019-03-20T22:39:36.488Z,102514.72
2019-03-20T22:42:30.819Z,102515.88
2019-03-20T22:45:31.755Z,102520.20
2019-03-20T22:48:38.804Z,102521.13
2019-03-20T22:51:38.212Z,102519.11
2019-03-20T22:55:02.400Z,102518.97
2019-03-20T22:57:53.617Z,102523.04
2019-03-20T23:00:25.295Z,102534.00
2019-03-20T23:03:15.743Z,102532.22
2019-03-20T23:05:45.985Z,102531.06
2019-03-20T23:08:16.534Z,102530.66
2019-03-20T23:10:48.536Z,102531.29
2019-03-20T23:13:19.465Z,102531.58
2019-03-20T23:15:50.275Z,102535.53
2019-03-20T23:18:20.693Z,102543.50
2019-03-20T23:20:50.990Z,102547.41
2019-03-20T23:23:21.334Z,102546.42
2019-03-20T23:25:52.264Z,102539.02
2019-03-20T23:28:23.079Z,102557.61
2019-03-20T23:30:53.506Z,102545.63
2019-03-20T23:33:23.820Z,102557.98
2019-03-20T23:35:54.123Z,102558.23
2019-03-20T23:38:24.386Z,102561.31
2019-03-20T23:40:54.700Z,102558.02
2019-03-20T23:43:24.934Z,102560.92
2019-03-20T23:45:55.295Z,102557.80
2019-03-20T23:48:41.812Z,102556.84
2019-03-20T23:51:14.511Z,102563.29
2019-03-20T23:53:48.518Z,102556.97
2019-03-20T23:56:18.822Z,102560.75
2019-03-20T23:58:49.030Z,102560.23
